Hl Taean — HOAH — position and weather

sailwx.info

Track history (hours):
 
Tides and Currents Weather Stations Pressure Air Temp Water Temp Dewpoint Dewpoint Depression Visibility Wind Speed Wind Dir Waves Ship Positions

Hl Taean

Last reported at 2018-Feb-10 06:19 UTC. Time now 2018-Feb-21 23:33 UTC.
Position N 25°34' E 121°51'.
Warning: this ship's position is 11 days out of date.

Length 273 m; draft 15.3 m.

Type: Cargo ship. MMSI: 357061000.

Date/timePositionNaut miles runAvg speedWind from/ knotsBaromVisibWave heightAir tempDewpointWater temp
2018-Feb-10 06:19N 25°34' E 121°51'411.3
2018-Feb-10 06:00N 25°32' E 121°55'611.5
2018-Feb-10 05:29N 25°29' E 121°60'711.5
2018-Feb-10 04:55N 25°24' E 122°05'611.5
2018-Feb-10 04:24N 25°19' E 122°09'511.5
2018-Feb-10 04:00N 25°16' E 122°13'611.4
2018-Feb-10 03:30N 25°11' E 122°16'911.3
2018-Feb-10 02:42N 25°04' E 122°22'510.7
2018-Feb-10 02:16N 24°60' E 122°25'310.5
2018-Feb-10 01:57N 24°57' E 122°26'510.7
2018-Feb-10 01:30N 24°52' E 122°28'510.7
2018-Feb-10 01:00N 24°47' E 122°30'610.9
2018-Feb-10 00:30N 24°42' E 122°32'611.4
2018-Feb-10 00:00N 24°37' E 122°34'612.9
2018-Feb-09 23:30N 24°31' E 122°36'713.1
2018-Feb-09 23:00N 24°24' E 122°38'312.9
2018-Feb-09 22:46N 24°22' E 122°40'1013.0
2018-Feb-09 22:00N 24°14' E 122°47'713.3
2018-Feb-09 21:30N 24°09' E 122°51'1313.3
2018-Feb-09 20:30N 23°58' E 123°00'713.2
2018-Feb-09 20:00N 23°53' E 123°05'613.0
2018-Feb-09 19:30N 23°48' E 123°09'612.9
2018-Feb-09 19:00N 23°43' E 123°13'  
Track history (hours):
 
Tides and Currents Weather Stations Pressure Air Temp Water Temp Dewpoint Dewpoint Depression Visibility Wind Speed Wind Dir Waves Ship Positions

Hl Taean

Last reported at 2018-Feb-10 06:19 UTC. Time now 2018-Feb-21 23:33 UTC.
Position N 25°34' E 121°51'.
Warning: this ship's position is 11 days out of date.

Length 273 m; draft 15.3 m.

Type: Cargo ship. MMSI: 357061000.

Date/timePositionNaut miles runAvg speedWind from/ knotsBaromVisibWave heightAir tempDewpointWater temp
2018-Feb-10 06:19N 25°34' E 121°51'411.3
2018-Feb-10 06:00N 25°32' E 121°55'611.5
2018-Feb-10 05:29N 25°29' E 121°60'711.5
2018-Feb-10 04:55N 25°24' E 122°05'611.5
2018-Feb-10 04:24N 25°19' E 122°09'511.5
2018-Feb-10 04:00N 25°16' E 122°13'611.4
2018-Feb-10 03:30N 25°11' E 122°16'911.3
2018-Feb-10 02:42N 25°04' E 122°22'510.7
2018-Feb-10 02:16N 24°60' E 122°25'310.5
2018-Feb-10 01:57N 24°57' E 122°26'510.7
2018-Feb-10 01:30N 24°52' E 122°28'510.7
2018-Feb-10 01:00N 24°47' E 122°30'610.9
2018-Feb-10 00:30N 24°42' E 122°32'611.4
2018-Feb-10 00:00N 24°37' E 122°34'612.9
2018-Feb-09 23:30N 24°31' E 122°36'713.1
2018-Feb-09 23:00N 24°24' E 122°38'312.9
2018-Feb-09 22:46N 24°22' E 122°40'1013.0
2018-Feb-09 22:00N 24°14' E 122°47'713.3
2018-Feb-09 21:30N 24°09' E 122°51'1313.3
2018-Feb-09 20:30N 23°58' E 123°00'713.2
2018-Feb-09 20:00N 23°53' E 123°05'613.0
2018-Feb-09 19:30N 23°48' E 123°09'612.9
2018-Feb-09 19:00N 23°43' E 123°13'  

Dump ship's entire track history